Promised Land, New York
Current Conditions -  °F | °C
As of 12:56 PM on Monday 26 Jan 2015 (Local Time) from KGON Reporting Station
Overcast Overcast  
Wind Chill: -12°   Ceiling: 4200
Heat Index: -4°   Visibility: 10mi
Dew Point: -7°   Wind: 20mph
Humidity: 78%   Direction: 30°NNE
Pressure: 29.97"   Gusts: 25mph
Location:  40.9764°N, 72.1316°W
Report Text: KGON 261756Z 03017G22KT 10SM OVC042 M04/M07 A2997 RMK AO2 UPB16E24SNE16 SLP147 P0000 60000 T10391072 11039 21072 56033
Loading
Personal Weather Stations






























Interactive Weather Map New forecast layout! Learn more

10-Day Weather Forecast

Advertisements
Track Severe Weather on mobile